sensor_id;sensor_type;location;lat;lon;timestamp;P1;durP1;ratioP1;P2;durP2;ratioP2
8044;SDS011;4065;48.754;9.982;2023-07-16T00:01:53;7.60;;;5.35;;
8044;SDS011;4065;48.754;9.982;2023-07-16T00:05:15;6.13;;;4.78;;
8044;SDS011;4065;48.754;9.982;2023-07-16T00:08:39;7.68;;;4.97;;
8044;SDS011;4065;48.754;9.982;2023-07-16T00:12:01;6.00;;;4.60;;
8044;SDS011;4065;48.754;9.982;2023-07-16T00:15:24;4.40;;;4.00;;
8044;SDS011;4065;48.754;9.982;2023-07-16T00:18:46;4.13;;;3.58;;
8044;SDS011;4065;48.754;9.982;2023-07-16T00:22:08;3.70;;;2.50;;
8044;SDS011;4065;48.754;9.982;2023-07-16T00:25:31;3.00;;;2.50;;
8044;SDS011;4065;48.754;9.982;2023-07-16T00:28:56;4.28;;;2.58;;
8044;SDS011;4065;48.754;9.982;2023-07-16T00:32:20;3.47;;;2.40;;
8044;SDS011;4065;48.754;9.982;2023-07-16T00:35:46;3.40;;;2.40;;
8044;SDS011;4065;48.754;9.982;2023-07-16T00:39:09;3.60;;;2.75;;
8044;SDS011;4065;48.754;9.982;2023-07-16T00:42:33;4.03;;;2.38;;
8044;SDS011;4065;48.754;9.982;2023-07-16T00:45:55;2.53;;;1.95;;
8044;SDS011;4065;48.754;9.982;2023-07-16T00:49:17;1.83;;;1.73;;
8044;SDS011;4065;48.754;9.982;2023-07-16T00:52:39;2.20;;;1.67;;
8044;SDS011;4065;48.754;9.982;2023-07-16T00:56:01;3.17;;;1.70;;
8044;SDS011;4065;48.754;9.982;2023-07-16T00:59:25;2.42;;;1.80;;
8044;SDS011;4065;48.754;9.982;2023-07-16T01:02:47;2.70;;;2.13;;
8044;SDS011;4065;48.754;9.982;2023-07-16T01:06:10;3.90;;;1.98;;
8044;SDS011;4065;48.754;9.982;2023-07-16T01:09:35;2.15;;;1.70;;
8044;SDS011;4065;48.754;9.982;2023-07-16T01:12:58;1.63;;;1.52;;
8044;SDS011;4065;48.754;9.982;2023-07-16T01:17:03;2.30;;;1.85;;
8044;SDS011;4065;48.754;9.982;2023-07-16T01:20:46;1.98;;;1.40;;
8044;SDS011;4065;48.754;9.982;2023-07-16T01:24:24;1.88;;;1.55;;
8044;SDS011;4065;48.754;9.982;2023-07-16T01:28:15;2.33;;;1.60;;
8044;SDS011;4065;48.754;9.982;2023-07-16T01:31:59;2.28;;;1.75;;
8044;SDS011;4065;48.754;9.982;2023-07-16T01:35:21;1.90;;;1.70;;
8044;SDS011;4065;48.754;9.982;2023-07-16T01:38:43;2.58;;;1.55;;
8044;SDS011;4065;48.754;9.982;2023-07-16T01:42:06;3.03;;;1.70;;
8044;SDS011;4065;48.754;9.982;2023-07-16T01:45:28;3.17;;;1.85;;
8044;SDS011;4065;48.754;9.982;2023-07-16T01:48:51;1.75;;;1.65;;
8044;SDS011;4065;48.754;9.982;2023-07-16T01:52:13;2.70;;;1.90;;
8044;SDS011;4065;48.754;9.982;2023-07-16T01:55:35;2.55;;;1.95;;
8044;SDS011;4065;48.754;9.982;2023-07-16T01:58:56;2.58;;;1.90;;
8044;SDS011;4065;48.754;9.982;2023-07-16T02:02:18;3.10;;;1.80;;
8044;SDS011;4065;48.754;9.982;2023-07-16T02:05:41;3.05;;;1.70;;
8044;SDS011;4065;48.754;9.982;2023-07-16T02:09:03;2.33;;;1.90;;
8044;SDS011;4065;48.754;9.982;2023-07-16T02:12:25;2.03;;;1.83;;
8044;SDS011;4065;48.754;9.982;2023-07-16T02:15:47;2.58;;;2.08;;
8044;SDS011;4065;48.754;9.982;2023-07-16T02:19:09;4.00;;;1.70;;
8044;SDS011;4065;48.754;9.982;2023-07-16T02:22:33;1.90;;;1.80;;
8044;SDS011;4065;48.754;9.982;2023-07-16T02:25:56;3.28;;;2.28;;
8044;SDS011;4065;48.754;9.982;2023-07-16T02:29:18;2.10;;;1.83;;
8044;SDS011;4065;48.754;9.982;2023-07-16T02:32:40;3.25;;;2.05;;
8044;SDS011;4065;48.754;9.982;2023-07-16T02:36:02;3.20;;;1.70;;
8044;SDS011;4065;48.754;9.982;2023-07-16T02:39:25;4.82;;;2.00;;
8044;SDS011;4065;48.754;9.982;2023-07-16T02:42:47;2.55;;;2.00;;
8044;SDS011;4065;48.754;9.982;2023-07-16T02:46:09;2.15;;;1.80;;
8044;SDS011;4065;48.754;9.982;2023-07-16T02:49:31;3.03;;;2.45;;
8044;SDS011;4065;48.754;9.982;2023-07-16T02:52:53;5.53;;;2.53;;
8044;SDS011;4065;48.754;9.982;2023-07-16T02:56:16;3.55;;;2.22;;
8044;SDS011;4065;48.754;9.982;2023-07-16T02:59:38;3.00;;;2.13;;
8044;SDS011;4065;48.754;9.982;2023-07-16T03:03:00;3.85;;;2.50;;
8044;SDS011;4065;48.754;9.982;2023-07-16T03:06:21;3.05;;;2.20;;
8044;SDS011;4065;48.754;9.982;2023-07-16T03:09:43;2.40;;;2.20;;
8044;SDS011;4065;48.754;9.982;2023-07-16T03:13:06;2.53;;;2.33;;
8044;SDS011;4065;48.754;9.982;2023-07-16T03:16:28;4.53;;;2.47;;
8044;SDS011;4065;48.754;9.982;2023-07-16T03:19:50;2.80;;;2.60;;
8044;SDS011;4065;48.754;9.982;2023-07-16T03:23:13;3.17;;;2.42;;
8044;SDS011;4065;48.754;9.982;2023-07-16T03:26:35;2.70;;;2.40;;
8044;SDS011;4065;48.754;9.982;2023-07-16T03:29:58;3.85;;;2.30;;
8044;SDS011;4065;48.754;9.982;2023-07-16T03:33:20;2.58;;;2.30;;
8044;SDS011;4065;48.754;9.982;2023-07-16T03:36:42;4.43;;;2.50;;
8044;SDS011;4065;48.754;9.982;2023-07-16T03:40:12;4.32;;;2.30;;
8044;SDS011;4065;48.754;9.982;2023-07-16T03:43:34;2.80;;;2.13;;
8044;SDS011;4065;48.754;9.982;2023-07-16T03:46:58;3.08;;;2.65;;
8044;SDS011;4065;48.754;9.982;2023-07-16T03:50:20;3.60;;;2.50;;
8044;SDS011;4065;48.754;9.982;2023-07-16T03:53:41;3.15;;;2.40;;
8044;SDS011;4065;48.754;9.982;2023-07-16T03:57:04;2.60;;;2.33;;
8044;SDS011;4065;48.754;9.982;2023-07-16T04:00:26;3.80;;;2.42;;
8044;SDS011;4065;48.754;9.982;2023-07-16T04:03:49;3.28;;;2.53;;
8044;SDS011;4065;48.754;9.982;2023-07-16T04:07:11;3.83;;;2.55;;
8044;SDS011;4065;48.754;9.982;2023-07-16T04:10:33;3.03;;;2.47;;
8044;SDS011;4065;48.754;9.982;2023-07-16T04:13:54;3.13;;;2.30;;
8044;SDS011;4065;48.754;9.982;2023-07-16T04:17:16;5.57;;;2.53;;
8044;SDS011;4065;48.754;9.982;2023-07-16T04:20:39;3.35;;;2.53;;
8044;SDS011;4065;48.754;9.982;2023-07-16T04:24:01;2.50;;;2.17;;
8044;SDS011;4065;48.754;9.982;2023-07-16T04:27:23;4.80;;;2.55;;
8044;SDS011;4065;48.754;9.982;2023-07-16T04:30:45;2.90;;;2.40;;
8044;SDS011;4065;48.754;9.982;2023-07-16T04:34:07;2.80;;;2.33;;
8044;SDS011;4065;48.754;9.982;2023-07-16T04:37:30;6.15;;;2.40;;
8044;SDS011;4065;48.754;9.982;2023-07-16T04:40:52;4.70;;;2.58;;
8044;SDS011;4065;48.754;9.982;2023-07-16T04:44:14;5.40;;;2.72;;
8044;SDS011;4065;48.754;9.982;2023-07-16T04:47:39;4.13;;;2.33;;
8044;SDS011;4065;48.754;9.982;2023-07-16T04:51:02;4.53;;;2.63;;
8044;SDS011;4065;48.754;9.982;2023-07-16T04:54:25;8.88;;;2.85;;
8044;SDS011;4065;48.754;9.982;2023-07-16T04:57:47;3.60;;;2.50;;
8044;SDS011;4065;48.754;9.982;2023-07-16T05:01:09;4.88;;;2.50;;
8044;SDS011;4065;48.754;9.982;2023-07-16T05:04:31;5.43;;;3.20;;
8044;SDS011;4065;48.754;9.982;2023-07-16T05:07:53;5.70;;;2.55;;
8044;SDS011;4065;48.754;9.982;2023-07-16T05:11:16;4.25;;;2.60;;
8044;SDS011;4065;48.754;9.982;2023-07-16T05:14:45;6.10;;;2.70;;
8044;SDS011;4065;48.754;9.982;2023-07-16T05:18:07;3.63;;;2.65;;
8044;SDS011;4065;48.754;9.982;2023-07-16T05:21:29;6.03;;;2.85;;
8044;SDS011;4065;48.754;9.982;2023-07-16T05:24:51;8.48;;;3.25;;
8044;SDS011;4065;48.754;9.982;2023-07-16T05:28:14;5.63;;;2.72;;
8044;SDS011;4065;48.754;9.982;2023-07-16T05:31:36;6.60;;;2.85;;
8044;SDS011;4065;48.754;9.982;2023-07-16T05:34:58;8.10;;;3.00;;
8044;SDS011;4065;48.754;9.982;2023-07-16T05:38:20;5.70;;;2.85;;
8044;SDS011;4065;48.754;9.982;2023-07-16T05:41:42;5.90;;;2.85;;
8044;SDS011;4065;48.754;9.982;2023-07-16T05:45:06;7.70;;;2.83;;
8044;SDS011;4065;48.754;9.982;2023-07-16T05:48:28;6.22;;;3.40;;
8044;SDS011;4065;48.754;9.982;2023-07-16T05:51:50;4.13;;;2.72;;
8044;SDS011;4065;48.754;9.982;2023-07-16T05:55:12;10.80;;;3.60;;
8044;SDS011;4065;48.754;9.982;2023-07-16T05:58:34;8.07;;;3.25;;
8044;SDS011;4065;48.754;9.982;2023-07-16T06:01:57;4.47;;;3.00;;
8044;SDS011;4065;48.754;9.982;2023-07-16T06:05:19;6.28;;;2.88;;
8044;SDS011;4065;48.754;9.982;2023-07-16T06:08:41;9.10;;;3.03;;
8044;SDS011;4065;48.754;9.982;2023-07-16T06:12:03;5.80;;;3.30;;
8044;SDS011;4065;48.754;9.982;2023-07-16T06:15:25;8.35;;;3.30;;
8044;SDS011;4065;48.754;9.982;2023-07-16T06:18:48;6.18;;;2.72;;
8044;SDS011;4065;48.754;9.982;2023-07-16T06:22:10;6.68;;;2.80;;
8044;SDS011;4065;48.754;9.982;2023-07-16T06:25:32;9.68;;;3.15;;
8044;SDS011;4065;48.754;9.982;2023-07-16T06:28:54;5.85;;;3.10;;
8044;SDS011;4065;48.754;9.982;2023-07-16T06:32:16;5.68;;;3.17;;
8044;SDS011;4065;48.754;9.982;2023-07-16T06:35:39;5.78;;;2.90;;
8044;SDS011;4065;48.754;9.982;2023-07-16T06:39:01;5.63;;;3.03;;
8044;SDS011;4065;48.754;9.982;2023-07-16T06:42:25;6.60;;;2.97;;
8044;SDS011;4065;48.754;9.982;2023-07-16T06:45:48;4.50;;;2.70;;
8044;SDS011;4065;48.754;9.982;2023-07-16T06:49:10;5.00;;;2.58;;
8044;SDS011;4065;48.754;9.982;2023-07-16T06:52:33;4.75;;;2.80;;
8044;SDS011;4065;48.754;9.982;2023-07-16T06:55:55;6.80;;;2.78;;
8044;SDS011;4065;48.754;9.982;2023-07-16T06:59:17;3.58;;;2.17;;
8044;SDS011;4065;48.754;9.982;2023-07-16T07:02:39;3.97;;;2.25;;
8044;SDS011;4065;48.754;9.982;2023-07-16T07:06:01;5.60;;;2.85;;
8044;SDS011;4065;48.754;9.982;2023-07-16T07:09:25;4.50;;;2.90;;
8044;SDS011;4065;48.754;9.982;2023-07-16T07:12:47;5.13;;;2.88;;
8044;SDS011;4065;48.754;9.982;2023-07-16T07:16:09;3.10;;;2.50;;
8044;SDS011;4065;48.754;9.982;2023-07-16T07:19:31;3.38;;;2.47;;
8044;SDS011;4065;48.754;9.982;2023-07-16T07:22:53;4.65;;;2.50;;
8044;SDS011;4065;48.754;9.982;2023-07-16T07:26:16;4.25;;;2.80;;
8044;SDS011;4065;48.754;9.982;2023-07-16T07:29:38;3.38;;;2.45;;
8044;SDS011;4065;48.754;9.982;2023-07-16T07:33:00;4.63;;;2.42;;
8044;SDS011;4065;48.754;9.982;2023-07-16T07:36:22;3.85;;;2.42;;
8044;SDS011;4065;48.754;9.982;2023-07-16T07:39:44;4.28;;;2.60;;
8044;SDS011;4065;48.754;9.982;2023-07-16T07:43:09;6.35;;;2.90;;
8044;SDS011;4065;48.754;9.982;2023-07-16T07:46:31;5.45;;;2.50;;
8044;SDS011;4065;48.754;9.982;2023-07-16T07:49:53;3.45;;;2.40;;
8044;SDS011;4065;48.754;9.982;2023-07-16T07:53:15;5.13;;;2.67;;
8044;SDS011;4065;48.754;9.982;2023-07-16T07:56:39;6.20;;;2.75;;
8044;SDS011;4065;48.754;9.982;2023-07-16T08:00:02;6.43;;;2.60;;
8044;SDS011;4065;48.754;9.982;2023-07-16T08:03:26;4.18;;;2.28;;
8044;SDS011;4065;48.754;9.982;2023-07-16T08:06:47;4.53;;;2.65;;
8044;SDS011;4065;48.754;9.982;2023-07-16T08:10:10;7.15;;;2.80;;
8044;SDS011;4065;48.754;9.982;2023-07-16T08:13:32;4.43;;;2.30;;
8044;SDS011;4065;48.754;9.982;2023-07-16T08:16:55;4.47;;;2.35;;
8044;SDS011;4065;48.754;9.982;2023-07-16T08:20:17;5.40;;;2.65;;
8044;SDS011;4065;48.754;9.982;2023-07-16T08:23:39;4.20;;;2.13;;
8044;SDS011;4065;48.754;9.982;2023-07-16T08:27:01;5.68;;;2.67;;
8044;SDS011;4065;48.754;9.982;2023-07-16T08:30:22;9.30;;;2.85;;
8044;SDS011;4065;48.754;9.982;2023-07-16T08:33:46;6.15;;;2.53;;
8044;SDS011;4065;48.754;9.982;2023-07-16T08:37:08;5.57;;;2.70;;
8044;SDS011;4065;48.754;9.982;2023-07-16T08:40:29;4.60;;;2.70;;
8044;SDS011;4065;48.754;9.982;2023-07-16T08:43:51;5.75;;;2.40;;
8044;SDS011;4065;48.754;9.982;2023-07-16T08:47:14;7.18;;;2.65;;
8044;SDS011;4065;48.754;9.982;2023-07-16T08:50:37;4.93;;;2.70;;
8044;SDS011;4065;48.754;9.982;2023-07-16T08:53:59;5.45;;;2.20;;
8044;SDS011;4065;48.754;9.982;2023-07-16T08:57:21;4.93;;;2.47;;
8044;SDS011;4065;48.754;9.982;2023-07-16T09:00:43;6.05;;;2.53;;
8044;SDS011;4065;48.754;9.982;2023-07-16T09:04:06;6.15;;;2.30;;
8044;SDS011;4065;48.754;9.982;2023-07-16T09:07:29;6.32;;;2.80;;
8044;SDS011;4065;48.754;9.982;2023-07-16T09:10:53;6.00;;;3.08;;
8044;SDS011;4065;48.754;9.982;2023-07-16T09:14:16;6.70;;;2.90;;
8044;SDS011;4065;48.754;9.982;2023-07-16T09:17:38;6.85;;;2.63;;
8044;SDS011;4065;48.754;9.982;2023-07-16T09:21:00;6.47;;;3.15;;
8044;SDS011;4065;48.754;9.982;2023-07-16T09:24:24;3.78;;;2.22;;
8044;SDS011;4065;48.754;9.982;2023-07-16T09:27:48;5.65;;;2.40;;
8044;SDS011;4065;48.754;9.982;2023-07-16T09:31:10;5.38;;;3.00;;
8044;SDS011;4065;48.754;9.982;2023-07-16T09:34:33;5.43;;;2.35;;
8044;SDS011;4065;48.754;9.982;2023-07-16T09:37:54;4.10;;;2.50;;
8044;SDS011;4065;48.754;9.982;2023-07-16T09:41:18;5.03;;;2.70;;
8044;SDS011;4065;48.754;9.982;2023-07-16T09:44:40;4.25;;;2.38;;
8044;SDS011;4065;48.754;9.982;2023-07-16T09:48:03;5.25;;;2.72;;
8044;SDS011;4065;48.754;9.982;2023-07-16T09:51:25;5.57;;;2.95;;
8044;SDS011;4065;48.754;9.982;2023-07-16T09:54:47;4.70;;;2.50;;
8044;SDS011;4065;48.754;9.982;2023-07-16T09:58:12;4.47;;;2.58;;
8044;SDS011;4065;48.754;9.982;2023-07-16T10:01:36;6.85;;;3.17;;
8044;SDS011;4065;48.754;9.982;2023-07-16T10:05:11;6.65;;;2.55;;
8044;SDS011;4065;48.754;9.982;2023-07-16T10:08:34;3.13;;;2.35;;
8044;SDS011;4065;48.754;9.982;2023-07-16T10:12:06;4.75;;;2.20;;
8044;SDS011;4065;48.754;9.982;2023-07-16T10:15:51;6.03;;;2.58;;
8044;SDS011;4065;48.754;9.982;2023-07-16T10:19:22;5.38;;;2.50;;
8044;SDS011;4065;48.754;9.982;2023-07-16T10:22:46;4.43;;;2.53;;
8044;SDS011;4065;48.754;9.982;2023-07-16T10:26:08;3.60;;;2.33;;
8044;SDS011;4065;48.754;9.982;2023-07-16T10:29:32;4.43;;;2.50;;
8044;SDS011;4065;48.754;9.982;2023-07-16T10:33:02;4.25;;;2.17;;
8044;SDS011;4065;48.754;9.982;2023-07-16T10:36:27;6.40;;;2.90;;
8044;SDS011;4065;48.754;9.982;2023-07-16T10:39:52;3.20;;;2.47;;
8044;SDS011;4065;48.754;9.982;2023-07-16T10:43:16;3.15;;;2.00;;
8044;SDS011;4065;48.754;9.982;2023-07-16T10:46:41;4.95;;;2.53;;
8044;SDS011;4065;48.754;9.982;2023-07-16T10:50:06;4.45;;;2.40;;
8044;SDS011;4065;48.754;9.982;2023-07-16T10:53:29;3.63;;;2.10;;
8044;SDS011;4065;48.754;9.982;2023-07-16T10:56:52;2.90;;;2.25;;
8044;SDS011;4065;48.754;9.982;2023-07-16T11:00:14;4.93;;;2.40;;
8044;SDS011;4065;48.754;9.982;2023-07-16T11:03:37;2.65;;;2.15;;
8044;SDS011;4065;48.754;9.982;2023-07-16T11:07:05;4.55;;;2.50;;
8044;SDS011;4065;48.754;9.982;2023-07-16T11:10:29;5.93;;;2.50;;
8044;SDS011;4065;48.754;9.982;2023-07-16T11:13:52;3.38;;;2.30;;
8044;SDS011;4065;48.754;9.982;2023-07-16T11:17:15;6.30;;;2.40;;
8044;SDS011;4065;48.754;9.982;2023-07-16T11:20:38;3.22;;;2.13;;
8044;SDS011;4065;48.754;9.982;2023-07-16T11:24:09;3.35;;;2.17;;
8044;SDS011;4065;48.754;9.982;2023-07-16T11:27:32;3.25;;;2.30;;
8044;SDS011;4065;48.754;9.982;2023-07-16T11:30:55;2.80;;;2.17;;
8044;SDS011;4065;48.754;9.982;2023-07-16T11:34:19;4.10;;;2.13;;
8044;SDS011;4065;48.754;9.982;2023-07-16T11:37:42;3.13;;;2.10;;
8044;SDS011;4065;48.754;9.982;2023-07-16T11:41:06;3.17;;;2.15;;
8044;SDS011;4065;48.754;9.982;2023-07-16T11:44:31;5.13;;;2.35;;
8044;SDS011;4065;48.754;9.982;2023-07-16T11:47:54;5.20;;;2.30;;
8044;SDS011;4065;48.754;9.982;2023-07-16T11:51:17;2.85;;;2.30;;
8044;SDS011;4065;48.754;9.982;2023-07-16T11:54:41;3.30;;;2.22;;
8044;SDS011;4065;48.754;9.982;2023-07-16T11:58:05;3.83;;;2.28;;
8044;SDS011;4065;48.754;9.982;2023-07-16T12:01:27;4.18;;;2.05;;
8044;SDS011;4065;48.754;9.982;2023-07-16T12:04:51;2.97;;;2.03;;
8044;SDS011;4065;48.754;9.982;2023-07-16T12:08:14;2.72;;;1.95;;
8044;SDS011;4065;48.754;9.982;2023-07-16T12:11:36;5.82;;;1.80;;
8044;SDS011;4065;48.754;9.982;2023-07-16T12:15:01;3.75;;;2.28;;
8044;SDS011;4065;48.754;9.982;2023-07-16T12:18:23;3.00;;;2.20;;
8044;SDS011;4065;48.754;9.982;2023-07-16T12:21:46;5.38;;;2.58;;
8044;SDS011;4065;48.754;9.982;2023-07-16T12:25:08;2.78;;;1.92;;
8044;SDS011;4065;48.754;9.982;2023-07-16T12:28:31;2.67;;;2.30;;
8044;SDS011;4065;48.754;9.982;2023-07-16T12:31:55;1.92;;;1.73;;
8044;SDS011;4065;48.754;9.982;2023-07-16T12:35:17;4.57;;;2.30;;
8044;SDS011;4065;48.754;9.982;2023-07-16T12:38:49;3.55;;;2.15;;
8044;SDS011;4065;48.754;9.982;2023-07-16T12:42:48;3.20;;;2.45;;
8044;SDS011;4065;48.754;9.982;2023-07-16T12:46:10;5.85;;;2.80;;
8044;SDS011;4065;48.754;9.982;2023-07-16T12:49:33;4.28;;;2.50;;
8044;SDS011;4065;48.754;9.982;2023-07-16T12:52:55;3.05;;;1.92;;
8044;SDS011;4065;48.754;9.982;2023-07-16T12:56:17;3.17;;;2.42;;
8044;SDS011;4065;48.754;9.982;2023-07-16T12:59:39;3.72;;;3.10;;
8044;SDS011;4065;48.754;9.982;2023-07-16T13:03:02;3.63;;;2.28;;
8044;SDS011;4065;48.754;9.982;2023-07-16T13:06:27;5.00;;;3.10;;
8044;SDS011;4065;48.754;9.982;2023-07-16T13:09:49;4.97;;;2.72;;
8044;SDS011;4065;48.754;9.982;2023-07-16T13:13:11;3.40;;;2.10;;
8044;SDS011;4065;48.754;9.982;2023-07-16T13:16:34;4.72;;;2.22;;
8044;SDS011;4065;48.754;9.982;2023-07-16T13:19:58;3.67;;;2.55;;
8044;SDS011;4065;48.754;9.982;2023-07-16T13:23:23;3.45;;;2.15;;
8044;SDS011;4065;48.754;9.982;2023-07-16T13:26:45;2.95;;;2.20;;
8044;SDS011;4065;48.754;9.982;2023-07-16T13:30:08;3.05;;;2.03;;
8044;SDS011;4065;48.754;9.982;2023-07-16T13:33:34;3.10;;;2.33;;
8044;SDS011;4065;48.754;9.982;2023-07-16T13:36:56;2.58;;;1.95;;
8044;SDS011;4065;48.754;9.982;2023-07-16T13:40:20;2.72;;;2.25;;
8044;SDS011;4065;48.754;9.982;2023-07-16T13:43:43;4.15;;;2.55;;
8044;SDS011;4065;48.754;9.982;2023-07-16T13:47:06;4.28;;;3.00;;
8044;SDS011;4065;48.754;9.982;2023-07-16T13:50:28;3.20;;;2.90;;
8044;SDS011;4065;48.754;9.982;2023-07-16T13:53:51;3.15;;;2.33;;
8044;SDS011;4065;48.754;9.982;2023-07-16T13:57:15;2.28;;;2.03;;
8044;SDS011;4065;48.754;9.982;2023-07-16T14:00:37;2.85;;;2.15;;
8044;SDS011;4065;48.754;9.982;2023-07-16T14:03:59;4.20;;;3.03;;
8044;SDS011;4065;48.754;9.982;2023-07-16T14:07:22;4.88;;;2.50;;
8044;SDS011;4065;48.754;9.982;2023-07-16T14:10:44;3.78;;;2.47;;
8044;SDS011;4065;48.754;9.982;2023-07-16T14:14:09;4.75;;;2.30;;
8044;SDS011;4065;48.754;9.982;2023-07-16T14:17:31;4.32;;;2.45;;
8044;SDS011;4065;48.754;9.982;2023-07-16T14:20:53;2.53;;;1.95;;
8044;SDS011;4065;48.754;9.982;2023-07-16T14:24:17;3.35;;;2.10;;
8044;SDS011;4065;48.754;9.982;2023-07-16T14:27:39;3.97;;;2.13;;
8044;SDS011;4065;48.754;9.982;2023-07-16T14:31:03;3.25;;;2.08;;
8044;SDS011;4065;48.754;9.982;2023-07-16T14:34:26;3.00;;;2.25;;
8044;SDS011;4065;48.754;9.982;2023-07-16T14:37:51;3.65;;;2.25;;
8044;SDS011;4065;48.754;9.982;2023-07-16T14:41:13;4.45;;;2.60;;
8044;SDS011;4065;48.754;9.982;2023-07-16T14:44:37;3.78;;;2.60;;
8044;SDS011;4065;48.754;9.982;2023-07-16T14:48:01;3.70;;;2.42;;
8044;SDS011;4065;48.754;9.982;2023-07-16T14:51:25;2.72;;;2.08;;
8044;SDS011;4065;48.754;9.982;2023-07-16T14:54:48;4.20;;;2.22;;
8044;SDS011;4065;48.754;9.982;2023-07-16T14:58:10;3.60;;;2.50;;
8044;SDS011;4065;48.754;9.982;2023-07-16T15:01:34;3.80;;;2.65;;
8044;SDS011;4065;48.754;9.982;2023-07-16T15:04:58;4.53;;;2.20;;
8044;SDS011;4065;48.754;9.982;2023-07-16T15:08:21;4.45;;;2.30;;
8044;SDS011;4065;48.754;9.982;2023-07-16T15:11:44;3.30;;;2.50;;
8044;SDS011;4065;48.754;9.982;2023-07-16T15:15:07;4.57;;;2.67;;
8044;SDS011;4065;48.754;9.982;2023-07-16T15:18:31;4.15;;;2.53;;
8044;SDS011;4065;48.754;9.982;2023-07-16T15:21:56;2.88;;;2.58;;
8044;SDS011;4065;48.754;9.982;2023-07-16T15:25:19;3.63;;;2.33;;
8044;SDS011;4065;48.754;9.982;2023-07-16T15:28:43;4.55;;;2.30;;
8044;SDS011;4065;48.754;9.982;2023-07-16T15:32:06;3.15;;;2.25;;
8044;SDS011;4065;48.754;9.982;2023-07-16T15:35:30;3.63;;;2.50;;
8044;SDS011;4065;48.754;9.982;2023-07-16T15:38:58;2.90;;;2.33;;
8044;SDS011;4065;48.754;9.982;2023-07-16T15:42:21;6.05;;;2.88;;
8044;SDS011;4065;48.754;9.982;2023-07-16T15:45:44;3.28;;;2.60;;
8044;SDS011;4065;48.754;9.982;2023-07-16T15:49:07;2.78;;;2.10;;
8044;SDS011;4065;48.754;9.982;2023-07-16T15:52:31;3.15;;;2.63;;
8044;SDS011;4065;48.754;9.982;2023-07-16T16:00:16;2.45;;;2.25;;
8044;SDS011;4065;48.754;9.982;2023-07-16T16:03:40;2.97;;;2.17;;
8044;SDS011;4065;48.754;9.982;2023-07-16T16:07:03;3.67;;;2.70;;
8044;SDS011;4065;48.754;9.982;2023-07-16T16:10:28;3.58;;;2.30;;
8044;SDS011;4065;48.754;9.982;2023-07-16T16:13:50;5.93;;;2.72;;
8044;SDS011;4065;48.754;9.982;2023-07-16T16:17:15;3.15;;;2.40;;
8044;SDS011;4065;48.754;9.982;2023-07-16T16:20:38;4.78;;;2.85;;
8044;SDS011;4065;48.754;9.982;2023-07-16T16:24:00;3.70;;;2.78;;
8044;SDS011;4065;48.754;9.982;2023-07-16T16:27:23;3.60;;;2.60;;
8044;SDS011;4065;48.754;9.982;2023-07-16T16:30:46;3.53;;;2.22;;
8044;SDS011;4065;48.754;9.982;2023-07-16T16:34:10;4.40;;;2.65;;
8044;SDS011;4065;48.754;9.982;2023-07-16T16:37:33;3.53;;;2.40;;
8044;SDS011;4065;48.754;9.982;2023-07-16T16:41:01;4.75;;;2.50;;
8044;SDS011;4065;48.754;9.982;2023-07-16T16:44:28;4.15;;;2.58;;
8044;SDS011;4065;48.754;9.982;2023-07-16T16:47:51;5.45;;;2.70;;
8044;SDS011;4065;48.754;9.982;2023-07-16T16:51:15;3.30;;;2.60;;
8044;SDS011;4065;48.754;9.982;2023-07-16T16:54:38;4.38;;;2.55;;
8044;SDS011;4065;48.754;9.982;2023-07-16T16:58:00;5.40;;;2.40;;
8044;SDS011;4065;48.754;9.982;2023-07-16T17:01:24;4.20;;;2.88;;
8044;SDS011;4065;48.754;9.982;2023-07-16T17:04:45;2.88;;;2.25;;
8044;SDS011;4065;48.754;9.982;2023-07-16T17:08:10;3.65;;;2.75;;
8044;SDS011;4065;48.754;9.982;2023-07-16T17:11:32;3.72;;;2.50;;
8044;SDS011;4065;48.754;9.982;2023-07-16T17:14:54;4.53;;;2.72;;
8044;SDS011;4065;48.754;9.982;2023-07-16T17:18:17;4.18;;;2.63;;
8044;SDS011;4065;48.754;9.982;2023-07-16T17:21:40;3.78;;;2.92;;
8044;SDS011;4065;48.754;9.982;2023-07-16T19:54:44;6.40;;;3.50;;
8044;SDS011;4065;48.754;9.982;2023-07-16T19:58:06;6.85;;;3.58;;
8044;SDS011;4065;48.754;9.982;2023-07-16T20:01:28;4.75;;;2.97;;
8044;SDS011;4065;48.754;9.982;2023-07-16T20:04:51;4.68;;;3.35;;
8044;SDS011;4065;48.754;9.982;2023-07-16T20:08:14;4.90;;;3.05;;
8044;SDS011;4065;48.754;9.982;2023-07-16T20:11:37;4.07;;;3.17;;
8044;SDS011;4065;48.754;9.982;2023-07-16T20:14:59;5.03;;;3.10;;
8044;SDS011;4065;48.754;9.982;2023-07-16T20:18:21;5.03;;;3.42;;
8044;SDS011;4065;48.754;9.982;2023-07-16T20:21:42;5.95;;;3.38;;
8044;SDS011;4065;48.754;9.982;2023-07-16T20:25:06;3.90;;;3.15;;
8044;SDS011;4065;48.754;9.982;2023-07-16T20:28:29;3.38;;;3.08;;
8044;SDS011;4065;48.754;9.982;2023-07-16T20:31:52;5.63;;;3.00;;
8044;SDS011;4065;48.754;9.982;2023-07-16T20:35:13;6.25;;;3.35;;
8044;SDS011;4065;48.754;9.982;2023-07-16T20:38:35;4.35;;;3.03;;
8044;SDS011;4065;48.754;9.982;2023-07-16T20:41:59;3.72;;;3.03;;
8044;SDS011;4065;48.754;9.982;2023-07-16T20:45:21;5.15;;;3.33;;
8044;SDS011;4065;48.754;9.982;2023-07-16T20:48:44;4.63;;;3.40;;
8044;SDS011;4065;48.754;9.982;2023-07-16T20:52:07;3.90;;;3.00;;
8044;SDS011;4065;48.754;9.982;2023-07-16T20:55:29;4.50;;;3.47;;
8044;SDS011;4065;48.754;9.982;2023-07-16T20:58:52;3.38;;;2.92;;
8044;SDS011;4065;48.754;9.982;2023-07-16T21:02:14;7.07;;;3.60;;
8044;SDS011;4065;48.754;9.982;2023-07-16T21:05:36;3.60;;;3.03;;
8044;SDS011;4065;48.754;9.982;2023-07-16T21:08:58;4.97;;;3.65;;
8044;SDS011;4065;48.754;9.982;2023-07-16T21:12:20;6.30;;;3.55;;
8044;SDS011;4065;48.754;9.982;2023-07-16T21:15:43;6.20;;;3.03;;
8044;SDS011;4065;48.754;9.982;2023-07-16T21:19:05;6.75;;;3.25;;
8044;SDS011;4065;48.754;9.982;2023-07-16T21:22:27;5.70;;;3.40;;
8044;SDS011;4065;48.754;9.982;2023-07-16T21:25:49;5.88;;;3.33;;
8044;SDS011;4065;48.754;9.982;2023-07-16T21:29:11;5.22;;;3.53;;
8044;SDS011;4065;48.754;9.982;2023-07-16T21:32:34;5.32;;;3.60;;
8044;SDS011;4065;48.754;9.982;2023-07-16T21:35:56;4.68;;;3.53;;
8044;SDS011;4065;48.754;9.982;2023-07-16T21:39:18;6.68;;;3.63;;
8044;SDS011;4065;48.754;9.982;2023-07-16T21:42:40;4.40;;;3.30;;
8044;SDS011;4065;48.754;9.982;2023-07-16T21:46:02;4.25;;;3.25;;
8044;SDS011;4065;48.754;9.982;2023-07-16T21:49:26;5.13;;;3.42;;
8044;SDS011;4065;48.754;9.982;2023-07-16T21:52:49;5.55;;;3.40;;
8044;SDS011;4065;48.754;9.982;2023-07-16T21:56:11;6.32;;;3.47;;
8044;SDS011;4065;48.754;9.982;2023-07-16T21:59:34;4.68;;;3.50;;
8044;SDS011;4065;48.754;9.982;2023-07-16T22:02:56;5.07;;;3.95;;
8044;SDS011;4065;48.754;9.982;2023-07-16T22:06:19;4.15;;;3.22;;
8044;SDS011;4065;48.754;9.982;2023-07-16T22:09:41;4.80;;;3.58;;
8044;SDS011;4065;48.754;9.982;2023-07-16T22:13:03;5.40;;;3.30;;
8044;SDS011;4065;48.754;9.982;2023-07-16T22:16:25;5.30;;;3.20;;
8044;SDS011;4065;48.754;9.982;2023-07-16T22:19:47;7.03;;;3.45;;
8044;SDS011;4065;48.754;9.982;2023-07-16T22:23:11;6.05;;;3.58;;
8044;SDS011;4065;48.754;9.982;2023-07-16T22:26:33;5.65;;;3.78;;
8044;SDS011;4065;48.754;9.982;2023-07-16T22:29:55;4.53;;;3.30;;
8044;SDS011;4065;48.754;9.982;2023-07-16T22:33:17;5.18;;;3.85;;
8044;SDS011;4065;48.754;9.982;2023-07-16T22:36:39;5.38;;;3.67;;
8044;SDS011;4065;48.754;9.982;2023-07-16T22:40:03;3.90;;;3.15;;
8044;SDS011;4065;48.754;9.982;2023-07-16T22:43:26;6.18;;;3.72;;
8044;SDS011;4065;48.754;9.982;2023-07-16T22:46:48;6.65;;;3.30;;
8044;SDS011;4065;48.754;9.982;2023-07-16T22:50:10;6.20;;;3.55;;
8044;SDS011;4065;48.754;9.982;2023-07-16T22:53:32;5.65;;;3.50;;
8044;SDS011;4065;48.754;9.982;2023-07-16T22:57:02;6.95;;;3.78;;
8044;SDS011;4065;48.754;9.982;2023-07-16T23:00:25;6.30;;;3.83;;
8044;SDS011;4065;48.754;9.982;2023-07-16T23:03:47;8.05;;;4.22;;
8044;SDS011;4065;48.754;9.982;2023-07-16T23:07:09;6.50;;;3.83;;
8044;SDS011;4065;48.754;9.982;2023-07-16T23:10:31;5.13;;;3.55;;
8044;SDS011;4065;48.754;9.982;2023-07-16T23:13:54;5.55;;;3.45;;
8044;SDS011;4065;48.754;9.982;2023-07-16T23:17:16;6.93;;;4.00;;
8044;SDS011;4065;48.754;9.982;2023-07-16T23:20:38;4.90;;;3.42;;
8044;SDS011;4065;48.754;9.982;2023-07-16T23:24:00;5.55;;;3.65;;
8044;SDS011;4065;48.754;9.982;2023-07-16T23:27:24;7.15;;;3.60;;
8044;SDS011;4065;48.754;9.982;2023-07-16T23:30:48;6.57;;;3.55;;
8044;SDS011;4065;48.754;9.982;2023-07-16T23:34:10;6.90;;;3.78;;
8044;SDS011;4065;48.754;9.982;2023-07-16T23:37:32;6.18;;;4.00;;